createdAt,value
2023-01-19T01:04:39.031Z,894.00
2023-01-19T01:05:38.911Z,894.00
2023-01-19T01:06:38.826Z,894.00
2023-01-19T01:07:38.739Z,895.00
2023-01-19T01:08:38.652Z,895.00
2023-01-19T01:09:38.559Z,898.00
2023-01-19T01:10:38.480Z,899.00
2023-01-19T01:11:38.383Z,897.00
2023-01-19T01:12:38.304Z,898.00
2023-01-19T01:13:38.222Z,898.00
2023-01-19T01:14:38.122Z,894.00
2023-01-19T01:15:38.595Z,895.00
2023-01-19T01:16:38.011Z,898.00
2023-01-19T01:17:37.873Z,897.00
2023-01-19T01:18:37.783Z,896.00
2023-01-19T01:19:37.691Z,893.00
2023-01-19T01:20:37.609Z,892.00
2023-01-19T01:21:37.523Z,892.00
2023-01-19T01:22:37.427Z,888.00
2023-01-19T01:23:37.334Z,886.00
2023-01-19T01:24:37.237Z,885.00
2023-01-19T01:25:37.143Z,887.00
2023-01-19T01:26:37.062Z,889.00
2023-01-19T01:27:36.975Z,888.00
2023-01-19T01:28:37.574Z,890.00
2023-01-19T01:29:36.799Z,888.00
2023-01-19T01:30:36.693Z,887.00
2023-01-19T01:31:36.703Z,887.00
2023-01-19T01:32:36.530Z,886.00
2023-01-19T01:33:40.060Z,884.00
2023-01-19T01:34:37.278Z,882.00
2023-01-19T01:35:36.157Z,880.00
2023-01-19T01:36:35.991Z,883.00
2023-01-19T01:37:35.856Z,885.00
2023-01-19T01:39:35.565Z,886.00
2023-01-19T03:07:26.709Z,864.00
2023-01-19T03:09:26.452Z,861.00
2023-01-19T03:10:26.333Z,862.00
2023-01-19T03:11:26.190Z,863.00
2023-01-19T03:12:26.060Z,860.00
2023-01-19T03:13:25.935Z,859.00
2023-01-19T03:14:25.817Z,856.00
2023-01-19T03:15:25.731Z,855.00
2023-01-19T03:16:25.645Z,856.00
2023-01-19T03:20:25.622Z,865.00
2023-01-19T03:59:19.969Z,857.00
2023-01-19T04:00:19.820Z,855.00
2023-01-19T04:01:19.821Z,856.00
2023-01-19T04:02:19.582Z,857.00
2023-01-19T04:03:19.424Z,857.00
2023-01-19T04:04:20.128Z,854.00
2023-01-19T04:05:19.194Z,851.00
2023-01-19T04:06:19.056Z,849.00
2023-01-19T04:07:18.928Z,846.00
2023-01-19T04:08:18.802Z,845.00
2023-01-19T04:09:20.126Z,846.00
2023-01-19T04:10:18.548Z,847.00
2023-01-19T04:11:18.423Z,847.00
2023-01-19T04:12:19.132Z,848.00
2023-01-19T04:13:18.194Z,846.00
2023-01-19T04:14:18.154Z,848.00
2023-01-19T04:15:17.964Z,845.00
2023-01-19T04:16:17.896Z,842.00
2023-01-19T04:17:17.730Z,839.00
2023-01-19T04:18:17.597Z,837.00
2023-01-19T04:19:17.481Z,840.00
2023-01-19T04:20:17.356Z,843.00
2023-01-19T04:21:17.242Z,845.00
2023-01-19T04:22:17.109Z,844.00
2023-01-19T04:23:17.637Z,844.00
2023-01-19T04:24:16.851Z,843.00
2023-01-19T04:25:16.732Z,844.00
2023-01-19T04:26:16.604Z,844.00
2023-01-19T04:27:16.473Z,841.00
2023-01-19T04:28:16.342Z,841.00
2023-01-19T04:29:16.202Z,843.00
2023-01-19T04:30:16.081Z,843.00
2023-01-19T04:31:15.984Z,844.00
2023-01-19T04:32:15.841Z,845.00
2023-01-19T04:33:15.705Z,847.00
2023-01-19T04:34:15.625Z,845.00
2023-01-19T04:39:15.644Z,842.00
2023-01-19T05:32:08.269Z,837.00
2023-01-19T05:33:08.144Z,833.00
2023-01-19T05:34:08.006Z,833.00
2023-01-19T05:35:07.891Z,833.00
2023-01-19T05:36:07.769Z,832.00
2023-01-19T05:37:07.630Z,834.00
2023-01-19T05:38:07.508Z,832.00
2023-01-19T05:39:07.368Z,832.00
2023-01-19T05:40:07.243Z,833.00
2023-01-19T05:41:07.143Z,834.00
2023-01-19T05:42:06.986Z,836.00
2023-01-19T05:43:06.864Z,836.00
2023-01-19T05:44:06.718Z,838.00
2023-01-19T05:45:06.601Z,835.00
2023-01-19T05:46:06.480Z,837.00
2023-01-19T05:47:06.352Z,836.00
2023-01-19T05:48:06.981Z,835.00
2023-01-19T05:49:06.160Z,833.00
2023-01-19T05:50:05.973Z,831.00
2023-01-19T05:51:05.861Z,832.00
2023-01-19T05:52:05.729Z,834.00
2023-01-19T05:53:05.614Z,837.00
2023-01-19T06:29:01.130Z,1340.00
2023-01-19T06:30:01.143Z,1230.00
2023-01-19T06:31:00.928Z,1276.00
2023-01-19T06:32:00.747Z,1558.00
2023-01-19T06:33:01.006Z,1184.00
2023-01-19T06:35:07.184Z,1322.00
2023-01-19T06:36:07.152Z,1360.00
2023-01-19T06:37:07.867Z,1394.00
2023-01-19T06:38:07.076Z,1410.00
2023-01-19T06:39:09.880Z,1434.00
2023-01-19T06:40:06.984Z,1470.00
2023-01-19T06:41:06.927Z,1526.00
2023-01-19T06:42:06.895Z,1547.00
2023-01-19T06:43:06.830Z,1574.00
2023-01-19T06:44:06.788Z,1606.00
2023-01-19T06:45:06.738Z,1625.00
2023-01-19T06:46:06.689Z,1641.00
2023-01-19T06:47:15.671Z,1677.00
2023-01-19T06:48:07.583Z,1733.00
2023-01-19T06:49:06.535Z,1736.00
2023-01-19T06:50:06.482Z,1745.00
2023-01-19T06:51:06.428Z,1757.00
2023-01-19T06:52:06.362Z,1770.00
2023-01-19T06:53:06.314Z,1790.00
2023-01-19T06:54:06.278Z,1869.00
2023-01-19T06:55:06.887Z,1874.00
2023-01-19T06:56:06.180Z,1908.00
2023-01-19T06:57:06.119Z,1918.00
2023-01-19T06:58:06.090Z,1927.00
2023-01-19T06:59:06.009Z,1980.00
2023-01-19T07:00:05.950Z,1981.00
2023-01-19T07:01:06.063Z,2010.00
2023-01-19T07:02:26.929Z,2034.00
2023-01-19T07:03:06.831Z,2064.00
2023-01-19T07:04:05.709Z,2091.00
2023-01-19T07:05:05.655Z,2114.00
2023-01-19T07:06:05.618Z,2142.00
2023-01-19T07:07:05.527Z,2161.00
2023-01-19T07:14:05.883Z,2346.00
2023-01-19T07:28:05.546Z,2686.00
2023-01-19T12:53:59.478Z,3331.00
2023-01-19T12:54:59.430Z,3329.00
2023-01-19T12:55:59.402Z,3322.00
2023-01-19T12:56:59.360Z,3322.00
2023-01-19T12:57:59.355Z,3321.00
2023-01-19T12:58:59.328Z,3320.00
2023-01-19T12:59:59.274Z,3315.00
2023-01-19T13:00:59.329Z,3310.00
2023-01-19T13:09:58.860Z,3341.00
2023-01-19T13:10:58.853Z,3349.00
2023-01-19T13:12:01.018Z,3362.00
2023-01-19T13:12:58.860Z,3366.00
2023-01-19T13:20:58.864Z,3406.00
2023-01-19T13:21:58.845Z,3403.00
2023-01-19T14:03:59.278Z,3431.00
2023-01-19T14:04:59.337Z,3428.00
2023-01-19T14:05:59.276Z,3422.00
2023-01-19T14:06:59.282Z,3414.00
2023-01-19T14:07:59.323Z,3409.00
2023-01-19T14:08:59.233Z,3408.00
2023-01-19T14:09:59.217Z,3410.00
2023-01-19T14:10:59.211Z,3414.00
2023-01-19T14:12:59.769Z,3406.00
2023-01-19T14:13:59.095Z,3402.00
2023-01-19T14:14:59.082Z,3401.00
2023-01-19T14:15:59.042Z,3392.00
2023-01-19T14:16:58.957Z,3382.00
2023-01-19T14:17:58.919Z,3375.00
2023-01-19T14:18:58.993Z,3374.00
2023-01-19T14:19:58.928Z,3371.00
2023-01-19T14:20:58.794Z,3369.00
2023-01-19T14:21:58.848Z,3365.00
2023-01-19T14:22:58.723Z,3361.00
2023-01-19T14:23:58.697Z,3359.00
2023-01-19T14:24:58.665Z,3352.00
2023-01-19T14:25:58.630Z,3347.00
2023-01-19T14:26:58.593Z,3348.00
2023-01-19T14:27:58.541Z,3347.00
2023-01-19T14:28:58.504Z,3342.00
2023-01-19T14:29:58.471Z,3338.00
2023-01-19T14:30:58.552Z,3336.00
2023-01-19T14:31:58.403Z,3330.00
2023-01-19T14:32:58.328Z,3332.00
2023-01-19T14:33:58.316Z,3329.00
2023-01-19T14:34:58.312Z,3323.00
2023-01-19T14:35:58.209Z,3323.00
2023-01-19T14:36:58.178Z,3322.00
2023-01-19T14:37:58.125Z,3315.00
2023-01-19T14:38:58.149Z,3315.00
2023-01-19T14:39:58.107Z,3310.00
2023-01-19T14:40:57.993Z,3308.00
2023-01-19T14:41:57.947Z,3307.00
2023-01-19T14:42:57.935Z,3307.00
2023-01-19T14:43:57.890Z,3303.00
2023-01-19T14:44:57.829Z,3296.00
2023-01-19T14:45:57.815Z,3293.00
2023-01-19T14:46:57.754Z,3291.00
2023-01-19T14:47:57.805Z,3288.00
2023-01-19T14:48:57.681Z,3290.00
2023-01-19T14:49:57.642Z,3288.00
2023-01-19T14:51:03.131Z,3284.00
2023-01-19T14:51:58.540Z,3281.00
2023-01-19T14:52:57.564Z,3277.00
2023-01-19T14:53:58.894Z,3273.00
2023-01-19T14:54:57.425Z,3267.00
2023-01-19T14:55:57.389Z,3264.00
2023-01-19T14:56:57.340Z,3257.00
2023-01-19T14:57:57.281Z,3256.00
2023-01-19T14:58:57.270Z,3256.00
2023-01-19T14:59:57.186Z,3252.00
2023-01-19T15:00:57.212Z,3249.00
2023-01-19T15:01:57.308Z,3254.00
2023-01-19T15:02:57.061Z,3246.00
2023-01-19T15:03:57.090Z,3238.00
2023-01-19T15:04:56.961Z,3234.00
2023-01-19T15:05:56.903Z,3232.00
2023-01-19T15:06:56.858Z,3224.00
2023-01-19T15:07:56.801Z,3227.00
2023-01-19T15:08:56.775Z,3230.00
2023-01-19T15:09:56.714Z,3229.00
2023-01-19T15:10:56.660Z,3225.00
2023-01-19T15:11:56.612Z,3222.00
2023-01-19T15:12:56.588Z,3217.00
2023-01-19T15:13:56.533Z,3223.00
2023-01-19T15:14:56.515Z,3220.00
2023-01-19T15:15:56.462Z,3212.00
2023-01-19T15:16:56.368Z,3207.00
2023-01-19T15:17:56.494Z,3204.00
2023-01-19T15:18:56.271Z,3206.00
2023-01-19T15:19:56.257Z,3200.00
2023-01-19T15:20:56.199Z,3197.00
2023-01-19T15:21:56.128Z,3196.00
2023-01-19T15:22:56.078Z,3196.00
2023-01-19T15:23:56.070Z,3194.00
2023-01-19T15:24:55.974Z,3194.00
2023-01-19T15:25:55.932Z,3190.00
2023-01-19T15:26:55.883Z,3191.00
2023-01-19T15:27:55.843Z,3185.00
2023-01-19T15:28:55.795Z,3183.00
2023-01-19T15:29:55.732Z,3177.00
2023-01-19T15:30:55.718Z,3167.00
2023-01-19T15:31:55.658Z,3161.00
2023-01-19T15:32:55.590Z,3159.00
2023-01-19T15:33:55.545Z,3157.00
2023-01-19T15:41:56.069Z,3147.00
2023-01-19T15:48:55.558Z,3116.00
2023-01-19T16:12:53.656Z,3052.00
2023-01-19T16:13:53.604Z,3056.00
2023-01-19T16:14:53.626Z,3060.00
2023-01-19T16:15:53.510Z,3058.00
2023-01-19T16:16:53.531Z,3059.00
2023-01-19T16:17:53.417Z,3062.00
2023-01-19T16:18:53.371Z,3065.00
2023-01-19T16:19:53.329Z,3060.00
2023-01-19T16:20:53.296Z,3057.00
2023-01-19T16:21:53.243Z,3059.00
2023-01-19T16:22:54.981Z,3057.00
2023-01-19T16:23:53.174Z,3054.00
2023-01-19T16:24:53.218Z,3055.00
2023-01-19T16:25:53.084Z,3048.00
2023-01-19T16:26:53.023Z,3041.00
2023-01-19T16:27:52.975Z,3034.00
2023-01-19T16:28:52.930Z,3031.00
2023-01-19T16:29:52.887Z,3026.00
2023-01-19T16:30:52.875Z,3024.00
2023-01-19T16:31:52.838Z,3021.00
2023-01-19T16:32:52.742Z,3015.00
2023-01-19T16:33:52.709Z,3013.00
2023-01-19T16:34:52.640Z,3015.00
2023-01-19T16:35:52.622Z,3013.00
2023-01-19T16:36:52.577Z,3012.00
2023-01-19T16:37:52.527Z,3011.00
2023-01-19T16:38:52.489Z,3004.00
2023-01-19T16:39:52.470Z,3000.00
2023-01-19T16:40:52.503Z,3000.00
2023-01-19T16:41:52.369Z,2998.00
2023-01-19T16:42:52.333Z,2993.00
2023-01-19T16:43:52.284Z,2993.00
2023-01-19T16:44:52.243Z,2989.00
2023-01-19T16:45:52.229Z,2990.00
2023-01-19T16:46:52.235Z,2990.00
2023-01-19T16:47:52.145Z,2985.00
2023-01-19T16:48:52.104Z,2979.00
2023-01-19T16:49:52.067Z,2971.00
2023-01-19T16:50:52.024Z,2973.00
2023-01-19T16:51:51.949Z,2977.00
2023-01-19T16:52:51.919Z,2969.00
2023-01-19T16:53:51.860Z,2966.00
2023-01-19T16:54:51.841Z,2960.00
2023-01-19T16:55:51.777Z,2958.00
2023-01-19T16:56:51.735Z,2955.00
2023-01-19T16:57:51.697Z,2951.00
2023-01-19T16:58:51.649Z,2949.00
2023-01-19T16:59:51.609Z,2954.00
2023-01-19T17:00:51.632Z,2952.00
2023-01-19T17:01:51.625Z,2944.00
2023-01-19T17:02:51.487Z,2942.00
2023-01-19T17:03:51.423Z,2945.00
2023-01-19T17:04:51.378Z,2936.00
2023-01-19T17:05:51.422Z,2934.00
2023-01-19T17:06:51.292Z,2936.00
2023-01-19T17:07:51.282Z,2932.00
2023-01-19T17:08:51.213Z,2929.00
2023-01-19T17:09:51.204Z,2926.00
2023-01-19T17:10:51.151Z,2926.00
2023-01-19T17:11:51.086Z,2925.00
2023-01-19T17:12:51.027Z,2924.00
2023-01-19T17:13:51.046Z,2920.00
2023-01-19T17:14:50.942Z,2916.00
2023-01-19T17:15:50.889Z,2912.00
2023-01-19T17:16:50.934Z,2903.00
2023-01-19T17:17:50.814Z,2897.00
2023-01-19T17:18:50.767Z,2893.00
2023-01-19T17:19:50.736Z,2887.00
2023-01-19T17:20:50.684Z,2883.00
2023-01-19T17:21:50.647Z,2882.00
2023-01-19T17:22:50.606Z,2880.00
2023-01-19T17:23:50.566Z,2876.00
2023-01-19T17:24:50.514Z,2870.00
2023-01-19T17:25:50.488Z,2871.00
2023-01-19T17:26:50.453Z,2871.00
2023-01-19T17:27:50.407Z,2872.00
2023-01-19T17:28:50.599Z,2872.00
2023-01-19T17:29:50.375Z,2872.00
2023-01-19T17:30:50.368Z,2863.00
2023-01-19T17:31:50.247Z,2862.00
2023-01-19T17:32:50.213Z,2855.00
2023-01-19T17:33:50.164Z,2860.00
2023-01-19T17:34:50.125Z,2857.00
2023-01-19T17:35:50.094Z,2850.00
2023-01-19T17:36:50.038Z,2851.00
2023-01-19T17:37:50.000Z,2848.00
2023-01-19T17:38:49.960Z,2844.00
2023-01-19T17:39:49.930Z,2846.00
2023-01-19T17:40:49.889Z,2847.00
2023-01-19T17:41:50.396Z,2842.00
2023-01-19T17:42:50.121Z,2839.00
2023-01-19T17:43:49.770Z,2836.00
2023-01-19T17:44:50.627Z,2834.00
2023-01-19T17:45:49.697Z,2830.00
2023-01-19T17:46:49.672Z,2823.00
2023-01-19T17:47:49.604Z,2817.00
2023-01-19T17:48:49.562Z,2819.00
2023-01-19T17:49:49.534Z,2819.00
2023-01-19T17:50:49.491Z,2828.00
2023-01-19T17:51:49.499Z,2832.00
2023-01-19T17:52:49.399Z,2832.00
2023-01-19T17:53:49.358Z,2833.00
2023-01-19T17:54:49.323Z,2831.00
2023-01-19T17:55:50.119Z,2833.00
2023-01-19T17:56:49.622Z,2835.00
2023-01-19T17:57:49.180Z,2834.00
2023-01-19T17:58:49.206Z,2836.00
2023-01-19T17:59:49.082Z,2834.00
2023-01-19T18:00:49.110Z,2829.00
2023-01-19T18:01:49.095Z,2827.00
2023-01-19T18:02:49.008Z,2817.00
2023-01-19T18:03:48.905Z,2816.00
2023-01-19T18:04:48.872Z,2811.00
2023-01-19T18:05:48.876Z,2807.00
2023-01-19T18:06:48.774Z,2805.00
2023-01-19T18:07:48.729Z,2805.00
2023-01-19T18:08:48.684Z,2802.00
2023-01-19T18:09:48.642Z,2802.00
2023-01-19T18:10:48.585Z,2803.00
2023-01-19T18:11:48.539Z,2803.00
2023-01-19T18:12:48.489Z,2798.00
2023-01-19T18:13:48.475Z,2799.00
2023-01-19T18:14:48.407Z,2796.00
2023-01-19T18:15:48.384Z,2797.00
2023-01-19T18:16:48.332Z,2797.00
2023-01-19T18:17:48.279Z,2793.00
2023-01-19T18:18:48.232Z,2789.00
2023-01-19T18:19:48.197Z,2786.00
2023-01-19T18:20:48.140Z,2781.00
2023-01-19T18:21:48.086Z,2778.00
2023-01-19T18:22:48.043Z,2780.00
2023-01-19T18:23:47.997Z,2780.00
2023-01-19T18:24:47.945Z,2776.00
2023-01-19T18:25:47.904Z,2774.00
2023-01-19T18:26:48.683Z,2773.00
2023-01-19T18:27:47.912Z,2772.00
2023-01-19T18:28:47.781Z,2777.00
2023-01-19T18:29:47.733Z,2780.00
2023-01-19T18:30:47.830Z,2778.00
2023-01-19T18:31:47.653Z,2776.00
2023-01-19T18:32:47.651Z,2775.00
2023-01-19T18:33:47.597Z,2770.00
2023-01-19T18:34:47.567Z,2769.00
2023-01-19T18:35:47.608Z,2768.00
2023-01-19T18:36:48.127Z,2766.00
2023-01-19T18:37:47.487Z,2763.00
2023-01-19T18:38:47.466Z,2762.00
2023-01-19T18:39:47.438Z,2762.00
2023-01-19T18:40:47.419Z,2758.00
2023-01-19T18:41:47.399Z,2751.00
2023-01-19T18:42:47.370Z,2745.00
2023-01-19T18:43:47.369Z,2742.00
2023-01-19T18:44:47.316Z,2739.00
2023-01-19T18:45:47.288Z,2735.00
2023-01-19T18:46:47.265Z,2732.00
2023-01-19T18:47:47.316Z,2727.00
2023-01-19T18:48:47.228Z,2724.00
2023-01-19T18:49:47.196Z,2723.00
2023-01-19T18:50:47.183Z,2719.00
2023-01-19T18:51:47.165Z,2718.00
2023-01-19T18:52:47.212Z,2718.00
2023-01-19T18:53:47.106Z,2718.00
2023-01-19T18:54:47.088Z,2713.00
2023-01-19T18:55:47.052Z,2710.00
2023-01-19T18:56:47.041Z,2709.00
2023-01-19T18:57:47.078Z,2710.00
2023-01-19T18:58:47.083Z,2708.00
2023-01-19T18:59:46.984Z,2710.00
2023-01-19T19:00:46.961Z,2712.00
2023-01-19T19:01:47.010Z,2708.00
2023-01-19T19:02:46.929Z,2706.00
2023-01-19T19:03:46.923Z,2709.00
2023-01-19T19:04:46.912Z,2710.00
2023-01-19T19:05:47.935Z,2708.00
2023-01-19T19:06:46.822Z,2705.00
2023-01-19T19:07:46.799Z,2693.00
2023-01-19T19:08:46.778Z,2691.00
2023-01-19T19:09:46.708Z,2689.00
2023-01-19T19:10:46.656Z,2688.00
2023-01-19T19:11:46.645Z,2679.00
2023-01-19T19:12:46.566Z,2673.00
2023-01-19T19:13:46.529Z,2676.00
2023-01-19T19:14:46.470Z,2681.00
2023-01-19T19:15:46.521Z,2680.00
2023-01-19T19:16:46.389Z,2679.00
2023-01-19T19:17:46.350Z,2672.00
2023-01-19T19:18:46.313Z,2666.00
2023-01-19T19:19:46.303Z,2669.00
2023-01-19T19:20:46.216Z,2663.00
2023-01-19T19:21:46.164Z,2670.00
2023-01-19T19:22:46.113Z,2666.00
2023-01-19T19:23:46.074Z,2665.00
2023-01-19T19:24:46.027Z,2668.00
2023-01-19T19:25:45.974Z,2670.00
2023-01-19T19:26:45.940Z,2671.00
2023-01-19T19:27:45.881Z,2669.00
2023-01-19T19:28:45.858Z,2668.00
2023-01-19T19:29:45.835Z,2666.00
2023-01-19T19:30:45.876Z,2668.00
2023-01-19T19:31:45.909Z,2666.00
2023-01-19T19:32:46.651Z,2663.00
2023-01-19T19:33:45.751Z,2659.00
2023-01-19T19:34:45.715Z,2653.00
2023-01-19T19:35:45.732Z,2647.00
2023-01-19T19:36:46.642Z,2643.00
2023-01-19T19:37:45.675Z,2641.00
2023-01-19T19:38:45.660Z,2641.00
2023-01-19T19:39:45.652Z,2635.00
2023-01-19T19:40:45.625Z,2640.00
2023-01-19T19:41:46.161Z,2639.00
2023-01-19T19:42:45.626Z,2636.00
2023-01-19T19:43:45.565Z,2638.00
2023-01-19T19:44:45.553Z,2636.00
2023-01-19T19:45:45.528Z,2634.00
2023-01-19T19:46:45.567Z,2634.00
2023-01-19T19:47:45.484Z,2635.00
2023-01-19T19:48:45.472Z,2630.00
2023-01-19T19:49:45.464Z,2629.00
2023-01-19T19:50:45.436Z,2624.00
2023-01-19T19:51:45.417Z,2623.00
2023-01-19T19:53:45.389Z,2613.00
2023-01-19T19:54:45.361Z,2609.00
2023-01-19T19:55:45.351Z,2609.00
2023-01-19T19:56:45.324Z,2612.00
2023-01-19T19:57:45.307Z,2606.00
2023-01-19T19:58:45.282Z,2596.00
2023-01-19T19:59:45.261Z,2590.00
2023-01-19T20:05:45.665Z,2590.00
2023-01-19T22:56:41.566Z,2275.00
2023-01-19T22:57:41.547Z,2270.00
2023-01-19T22:58:41.544Z,2264.00
2023-01-19T22:59:41.588Z,2265.00
2023-01-19T23:00:41.591Z,2260.00
2023-01-19T23:01:41.574Z,2257.00
2023-01-19T23:02:41.502Z,2255.00
2023-01-19T23:03:41.489Z,2254.00
2023-01-19T23:04:41.464Z,2249.00
2023-01-19T23:05:41.488Z,2252.00
2023-01-19T23:07:41.433Z,2249.00
2023-01-19T23:09:41.427Z,2246.00
